Aérodrome :
LOGIN :

S'inscrire | Disclaimer

   EN    FR    IT 

 










Légende :    VFR   VFR Marginal   IFR   IFR Intensif   IFR Très Intensif
Visi : 
Plafond : 
>= 8 km
>= 3000ft
5 à 8 km
1000 à 3000 ft
1500m à 5 km
500 à 1000 ft
800 à 1500m
200 à 500 ft
< 800m
< 200 ft
Symboles :   Orages  Brouillard  Fortes neiges  Fortes précipitations  Vent > 20 kt
SIGMETs :   Divers  Orages  Givrage  Turbulence  Onde Orograph.  Cendres Volcan.







- Altitude de l'aérodrome : 125 ft
- Code IATA : MGL


EDLN - Mönchengladbach

METARs EXPIRÉS :
  • 221820Z VRB03KT CAVOK 24/13 Q1011
  • 221750Z 27005KT 200V320 CAVOK 25/13 Q1011

TAF TAF EDLN
Valide du 22 à 18h jusqu'au 23 à 03h UTC


221700Z 2218/2303 24008KT 9999 FEW045
TEMPO 2220/2303 SHRA BKN030TCU
PROB30
TEMPO 2222/2303 22015G25KT 4000 TSRA BKN015CB
Pas de NOTAMs connus pour ce terrain.
2 SIGMETs publiés pour la FIR Langen (EDGG) :
 
Orages noyés dans la masse
EDGG SIGMET 5 VALID 222031/222230 EDZF
EDGG LANGEN FIR EMBD TS FCST S OF N4834 AND E OF E00813 TOP FL400 MOV NE 25KT NC=
Orages noyés dans la masse
EDGG SIGMET 4 VALID 222000/222200 EDZF
EDGG LANGEN FIR EMBD TS FCST W OF E00745 TOP FL380 MOV NE 25KT NC=



MET'MAP, la Météo Aéronautique d'un coup d'oeil ! - Copyright ORBIFLY Décembre 2007 - Disclaimer

ORBIFLY MET'MAP TEAM :

Programmation & Développement : Alexandra Zaïnal
Conception & Développement : Baudouin d'Aumeries
Co-Programmation & Développement : Marc-Olivier Méhu
Soutien technique & logistique : Manuel Goepfert

Contact : metmap@orbifly.com




SOURCES & CREDITS :

   NOAA